createdAt,value
2023-11-23T00:02:19.404Z,4.30
2023-11-23T00:04:46.343Z,5.50
2023-11-23T00:07:13.280Z,7.30
2023-11-23T00:09:40.035Z,5.30
2023-11-23T00:12:07.408Z,4.80
2023-11-23T00:14:34.278Z,5.30
2023-11-23T00:17:01.182Z,5.70
2023-11-23T00:19:28.127Z,5.10
2023-11-23T00:23:29.053Z,4.60
2023-11-23T00:25:56.929Z,4.70
2023-11-23T00:28:24.480Z,4.20
2023-11-23T00:30:52.551Z,4.20
2023-11-23T00:33:20.809Z,4.20
2023-11-23T00:35:48.590Z,5.00
2023-11-23T00:38:20.170Z,5.70
2023-11-23T00:40:47.809Z,3.40
2023-11-23T00:50:59.330Z,3.60
2023-11-23T00:53:27.065Z,5.70
2023-11-23T00:55:58.368Z,3.60
2023-11-23T00:58:25.934Z,3.60
2023-11-23T01:00:53.427Z,4.00
2023-11-23T01:03:21.098Z,6.00
2023-11-23T01:05:49.070Z,4.90
2023-11-23T01:08:17.611Z,6.30
2023-11-23T01:10:45.382Z,5.90
2023-11-23T01:13:13.465Z,5.40
2023-11-23T01:15:41.140Z,5.50
2023-11-23T01:18:08.705Z,7.70
2023-11-23T01:20:36.343Z,5.90
2023-11-23T01:23:03.824Z,4.70
2023-11-23T01:25:31.469Z,5.50
2023-11-23T01:35:38.009Z,7.70
2023-11-23T01:38:05.577Z,4.10
2023-11-23T01:40:32.967Z,5.40
2023-11-23T01:43:11.357Z,5.10
2023-11-23T01:45:39.589Z,7.60
2023-11-23T01:48:07.352Z,8.10
2023-11-23T01:50:35.258Z,5.10
2023-11-23T01:53:03.029Z,7.40
2023-11-23T01:55:30.689Z,8.50
2023-11-23T01:57:58.434Z,8.00
2023-11-23T02:00:26.601Z,8.30
2023-11-23T02:02:54.323Z,9.90
2023-11-23T02:05:25.765Z,10.00
2023-11-23T02:07:53.386Z,9.20
2023-11-23T02:10:20.972Z,8.50
2023-11-23T02:20:33.019Z,10.10
2023-11-23T02:23:01.476Z,10.90
2023-11-23T02:25:29.350Z,10.80
2023-11-23T02:27:56.744Z,12.00
2023-11-23T02:30:24.220Z,14.00
2023-11-23T02:32:51.793Z,11.30
2023-11-23T02:35:20.650Z,11.70
2023-11-23T02:37:48.615Z,11.70
2023-11-23T02:40:16.564Z,11.60
2023-11-23T02:42:46.312Z,11.20
2023-11-23T02:45:14.566Z,7.20
2023-11-23T02:47:42.245Z,8.70
2023-11-23T02:50:12.559Z,11.40
2023-11-23T02:52:40.598Z,12.50
2023-11-23T02:55:12.469Z,9.40
2023-11-23T02:57:40.075Z,10.50
2023-11-23T03:00:08.711Z,9.10
2023-11-23T03:02:36.290Z,9.10
2023-11-23T03:05:05.149Z,10.60
2023-11-23T03:07:32.649Z,11.10
2023-11-23T03:10:02.539Z,9.60
2023-11-23T03:12:30.212Z,13.20
2023-11-23T03:14:57.713Z,13.20
2023-11-23T03:17:25.251Z,14.20
2023-11-23T03:19:52.653Z,14.20
2023-11-23T03:22:20.082Z,12.70
2023-11-23T03:24:50.656Z,13.30
2023-11-23T03:27:18.261Z,10.40
2023-11-23T03:29:45.738Z,12.20
2023-11-23T03:32:13.158Z,8.30
2023-11-23T03:34:40.788Z,7.60
2023-11-23T03:37:08.211Z,8.50
2023-11-23T03:39:35.640Z,7.50
2023-11-23T03:42:03.275Z,8.50
2023-11-23T03:44:30.766Z,7.40
2023-11-23T03:46:58.172Z,7.60
2023-11-23T03:49:25.567Z,12.50
2023-11-23T03:51:53.095Z,9.70
2023-11-23T03:54:20.504Z,14.80
2023-11-23T03:56:49.085Z,15.90
2023-11-23T03:59:16.624Z,13.00
2023-11-23T04:01:47.805Z,12.80
2023-11-23T04:04:15.593Z,12.40
2023-11-23T04:06:44.920Z,14.80
2023-11-23T04:09:12.697Z,12.90
2023-11-23T04:11:40.226Z,13.30
2023-11-23T04:14:07.856Z,13.20
2023-11-23T04:16:35.280Z,9.80
2023-11-23T04:19:03.052Z,8.50
2023-11-23T04:21:30.440Z,7.10
2023-11-23T04:23:57.915Z,6.80
2023-11-23T04:26:25.346Z,5.60
2023-11-23T04:28:52.809Z,7.00
2023-11-23T04:31:20.323Z,7.60
2023-11-23T04:33:47.795Z,7.10
2023-11-23T04:36:15.342Z,6.20
2023-11-23T04:38:43.529Z,8.20
2023-11-23T04:41:10.946Z,8.30
2023-11-23T04:43:38.467Z,8.20
2023-11-23T04:46:06.049Z,9.50
2023-11-23T04:48:33.694Z,7.20
2023-11-23T04:51:01.199Z,6.90
2023-11-23T04:53:28.625Z,17.40
2023-11-23T04:55:55.994Z,7.10
2023-11-23T04:58:25.893Z,7.30
2023-11-23T05:00:53.526Z,9.90
2023-11-23T05:03:21.545Z,8.40
2023-11-23T05:05:49.140Z,10.30
2023-11-23T05:08:16.538Z,9.30
2023-11-23T05:10:45.033Z,8.30
2023-11-23T05:13:13.757Z,7.10
2023-11-23T05:15:41.464Z,7.70
2023-11-23T05:18:08.967Z,10.50
2023-11-23T05:20:36.496Z,9.00
2023-11-23T05:23:04.003Z,8.20
2023-11-23T05:25:31.500Z,10.00
2023-11-23T05:27:58.928Z,10.10
2023-11-23T05:30:27.956Z,10.50
2023-11-23T05:32:55.808Z,10.40
2023-11-23T05:35:23.266Z,8.80
2023-11-23T05:37:50.657Z,10.00
2023-11-23T05:40:18.115Z,10.40
2023-11-23T05:42:54.305Z,8.50
2023-11-23T05:45:28.723Z,10.00
2023-11-23T05:47:56.346Z,8.00
2023-11-23T05:50:23.789Z,7.80
2023-11-23T05:52:51.187Z,8.00
2023-11-23T05:55:18.620Z,8.10
2023-11-23T05:57:46.097Z,6.90
2023-11-23T06:00:15.565Z,7.30
2023-11-23T06:02:44.062Z,8.10
2023-11-23T06:05:11.670Z,9.60
2023-11-23T06:07:39.182Z,9.80
2023-11-23T06:10:07.683Z,9.20
2023-11-23T06:12:36.647Z,10.20
2023-11-23T06:15:04.779Z,9.70
2023-11-23T06:17:32.702Z,6.80
2023-11-23T06:20:00.309Z,7.40
2023-11-23T06:22:28.109Z,7.10
2023-11-23T06:24:55.657Z,7.70
2023-11-23T06:27:23.604Z,11.80
2023-11-23T06:29:51.196Z,9.00
2023-11-23T06:32:18.710Z,7.00
2023-11-23T06:34:46.416Z,7.20
2023-11-23T06:37:13.945Z,6.70
2023-11-23T06:39:41.418Z,6.70
2023-11-23T06:42:08.879Z,7.50
2023-11-23T06:44:36.350Z,7.20
2023-11-23T06:47:05.161Z,8.70
2023-11-23T06:49:33.464Z,9.20
2023-11-23T06:52:00.974Z,8.70
2023-11-23T06:54:29.334Z,6.50
2023-11-23T06:56:58.493Z,8.50
2023-11-23T06:59:26.397Z,7.30
2023-11-23T07:01:55.024Z,8.30
2023-11-23T07:04:22.954Z,8.10
2023-11-23T07:06:51.079Z,9.40
2023-11-23T07:09:19.069Z,8.00
2023-11-23T07:11:47.017Z,11.90
2023-11-23T07:14:14.944Z,8.20
2023-11-23T07:16:42.497Z,8.30
2023-11-23T07:19:10.052Z,7.50
2023-11-23T07:21:37.560Z,9.90
2023-11-23T07:24:05.630Z,8.80
2023-11-23T07:26:33.272Z,8.90
2023-11-23T07:29:00.806Z,8.50
2023-11-23T07:31:28.969Z,9.00
2023-11-23T07:33:56.871Z,8.60
2023-11-23T07:36:27.518Z,10.30
2023-11-23T07:38:55.213Z,8.60
2023-11-23T07:41:22.798Z,11.30
2023-11-23T07:43:50.933Z,10.30
2023-11-23T07:46:18.540Z,10.70
2023-11-23T07:48:51.937Z,9.20
2023-11-23T07:51:20.960Z,8.20
2023-11-23T07:53:48.706Z,7.90
2023-11-23T07:56:17.537Z,13.30
2023-11-23T07:58:46.610Z,8.40
2023-11-23T08:01:14.387Z,7.70
2023-11-23T08:03:42.922Z,5.40
2023-11-23T08:06:11.390Z,6.90
2023-11-23T08:08:38.994Z,6.40
2023-11-23T08:11:07.011Z,7.40
2023-11-23T08:13:34.684Z,6.20
2023-11-23T08:16:03.948Z,6.60
2023-11-23T08:18:39.889Z,8.10
2023-11-23T08:21:12.543Z,8.60
2023-11-23T08:23:40.358Z,6.50
2023-11-23T08:26:07.899Z,7.40
2023-11-23T08:28:35.459Z,7.30
2023-11-23T08:31:03.597Z,6.40
2023-11-23T08:33:33.719Z,7.60
2023-11-23T08:36:03.989Z,9.20
2023-11-23T08:38:33.888Z,5.90
2023-11-23T08:41:06.095Z,6.60
2023-11-23T08:43:38.937Z,7.10
2023-11-23T08:46:08.814Z,5.70
2023-11-23T08:48:39.895Z,6.60
2023-11-23T08:51:09.756Z,6.20
2023-11-23T08:53:40.908Z,6.10
2023-11-23T08:56:14.518Z,5.80
2023-11-23T08:58:45.906Z,6.90
2023-11-23T09:06:06.153Z,5.80
2023-11-23T09:08:36.935Z,7.30
2023-11-23T09:11:07.940Z,6.30
2023-11-23T09:13:38.939Z,6.30
2023-11-23T09:16:08.864Z,5.50
2023-11-23T09:18:40.839Z,5.90
2023-11-23T09:21:11.969Z,7.10
2023-11-23T09:23:43.013Z,6.00
2023-11-23T09:26:13.948Z,6.20
2023-11-23T09:28:46.009Z,6.40
2023-11-23T09:31:19.405Z,6.70
2023-11-23T09:41:27.390Z,5.90
2023-11-23T09:43:55.060Z,6.20
2023-11-23T09:46:22.605Z,6.00
2023-11-23T09:48:50.268Z,6.30
2023-11-23T09:51:17.978Z,7.30
2023-11-23T09:53:45.736Z,6.20
2023-11-23T09:56:13.988Z,7.00
2023-11-23T09:58:41.878Z,6.90
2023-11-23T10:08:53.507Z,5.40
2023-11-23T10:11:22.009Z,5.80
2023-11-23T10:13:50.020Z,6.00
2023-11-23T10:16:17.504Z,7.10
2023-11-23T10:18:45.322Z,6.70
2023-11-23T10:21:13.271Z,6.40
2023-11-23T10:31:23.484Z,7.50
2023-11-23T10:33:51.971Z,6.40
2023-11-23T10:36:19.683Z,5.30
2023-11-23T10:38:48.418Z,7.70
2023-11-23T10:41:16.360Z,6.80
2023-11-23T10:43:43.944Z,6.00
2023-11-23T10:46:12.914Z,6.70
2023-11-23T10:56:22.194Z,6.30
2023-11-23T10:58:51.112Z,7.20
2023-11-23T11:01:22.923Z,6.70
2023-11-23T11:03:50.780Z,9.20
2023-11-23T11:06:24.747Z,7.70
2023-11-23T11:11:24.216Z,8.40
2023-11-23T11:14:00.134Z,6.80
2023-11-23T11:24:06.730Z,9.80
2023-11-23T11:26:35.549Z,7.10
2023-11-23T11:29:04.327Z,7.00
2023-11-23T11:31:37.665Z,9.40
2023-11-23T11:34:21.160Z,9.80
2023-11-23T11:44:35.068Z,7.20
2023-11-23T11:47:04.547Z,7.90
2023-11-23T11:49:32.141Z,11.40
2023-11-23T11:51:59.923Z,7.70
2023-11-23T11:54:27.837Z,8.40
2023-11-23T12:04:40.992Z,10.20
2023-11-23T12:07:17.520Z,15.80
2023-11-23T12:09:47.238Z,16.40
2023-11-23T12:12:15.390Z,16.10
2023-11-23T12:14:42.989Z,23.40
2023-11-23T12:17:12.139Z,20.40
2023-11-23T12:19:53.394Z,16.90
2023-11-23T12:22:25.133Z,12.30
2023-11-23T12:24:52.938Z,13.20
2023-11-23T12:27:22.643Z,19.10
2023-11-23T12:29:50.552Z,14.10
2023-11-23T12:32:18.649Z,12.90
2023-11-23T12:34:46.741Z,13.70
2023-11-23T12:37:14.687Z,9.40
2023-11-23T12:41:54.655Z,13.40
2023-11-23T12:44:23.235Z,12.00
2023-11-23T12:46:51.508Z,12.50
2023-11-23T12:49:21.460Z,13.40
2023-11-23T12:51:49.212Z,14.10
2023-11-23T12:54:16.986Z,11.30
2023-11-23T12:56:44.751Z,15.80
2023-11-23T12:59:12.649Z,16.10
2023-11-23T13:01:40.652Z,12.30
2023-11-23T13:04:10.107Z,13.50
2023-11-23T13:06:38.975Z,10.10
2023-11-23T13:09:13.183Z,11.00
2023-11-23T13:11:41.294Z,13.50
2023-11-23T13:14:09.641Z,15.00
2023-11-23T13:16:37.333Z,16.00
2023-11-23T13:19:17.004Z,12.60
2023-11-23T13:21:55.135Z,13.30
2023-11-23T13:24:22.960Z,14.70
2023-11-23T13:26:51.220Z,14.30
2023-11-23T13:29:19.857Z,13.70
2023-11-23T13:31:47.820Z,14.40
2023-11-23T13:34:16.269Z,17.50
2023-11-23T13:36:44.200Z,12.70
2023-11-23T13:39:16.056Z,15.60
2023-11-23T13:41:43.885Z,13.00
2023-11-23T13:44:12.232Z,14.30
2023-11-23T13:46:39.927Z,14.90
2023-11-23T13:49:12.138Z,15.10
2023-11-23T13:51:40.277Z,15.40
2023-11-23T13:54:08.304Z,14.20
2023-11-23T13:56:36.924Z,14.40
2023-11-23T13:59:05.607Z,13.40
2023-11-23T14:01:33.289Z,14.50
2023-11-23T14:04:02.841Z,11.40
2023-11-23T14:06:33.853Z,12.10
2023-11-23T14:09:03.115Z,12.60
2023-11-23T14:11:30.655Z,11.90
2023-11-23T14:13:58.537Z,13.10
2023-11-23T14:16:26.351Z,15.50
2023-11-23T14:18:54.081Z,11.60
2023-11-23T14:21:22.789Z,12.50
2023-11-23T14:23:51.339Z,12.40
2023-11-23T14:26:22.361Z,18.20
2023-11-23T14:28:50.493Z,15.60
2023-11-23T14:31:20.806Z,12.70
2023-11-23T14:33:48.820Z,12.70
2023-11-23T14:36:16.578Z,13.00
2023-11-23T14:38:44.159Z,14.10
2023-11-23T14:48:54.305Z,13.60
2023-11-23T14:51:22.050Z,12.60
2023-11-23T14:53:52.089Z,13.40
2023-11-23T14:56:22.081Z,12.10
2023-11-23T14:58:51.673Z,13.30
2023-11-23T15:01:21.829Z,13.20
2023-11-23T15:03:49.420Z,11.70
2023-11-23T15:06:18.484Z,12.70
2023-11-23T15:08:46.053Z,13.10
2023-11-23T15:11:13.525Z,13.20
2023-11-23T15:13:41.143Z,12.20
2023-11-23T15:16:09.622Z,11.70
2023-11-23T15:18:38.373Z,11.70
2023-11-23T15:21:06.428Z,11.80
2023-11-23T15:23:35.890Z,12.40
2023-11-23T15:26:08.272Z,11.30
2023-11-23T15:28:35.937Z,11.50
2023-11-23T15:31:03.948Z,9.80
2023-11-23T15:33:31.887Z,11.70
2023-11-23T15:35:59.756Z,12.00
2023-11-23T15:38:27.437Z,12.00
2023-11-23T15:40:54.993Z,14.10
2023-11-23T15:43:24.594Z,10.60
2023-11-23T15:45:53.425Z,13.40
2023-11-23T15:48:21.353Z,14.00
2023-11-23T15:50:49.210Z,13.70
2023-11-23T15:53:17.212Z,10.00
2023-11-23T15:55:45.053Z,12.20
2023-11-23T15:58:13.326Z,14.00
2023-11-23T16:00:41.050Z,12.70
2023-11-23T16:03:08.807Z,13.40
2023-11-23T16:05:36.553Z,13.80
2023-11-23T16:08:10.927Z,12.20
2023-11-23T16:10:38.497Z,13.60
2023-11-23T16:13:06.185Z,11.90
2023-11-23T16:15:33.886Z,13.50
2023-11-23T16:18:02.347Z,10.60
2023-11-23T16:20:29.975Z,11.90
2023-11-23T16:22:58.477Z,11.60
2023-11-23T16:25:27.703Z,11.80
2023-11-23T16:27:55.243Z,11.60
2023-11-23T16:30:22.715Z,12.70
2023-11-23T16:32:50.339Z,10.50
2023-11-23T16:35:18.517Z,12.40
2023-11-23T16:37:46.196Z,10.30
2023-11-23T16:40:13.955Z,13.40
2023-11-23T16:42:42.989Z,11.60
2023-11-23T16:45:11.537Z,13.00
2023-11-23T16:47:40.501Z,10.90
2023-11-23T16:50:12.432Z,11.30
2023-11-23T16:52:40.558Z,12.40
2023-11-23T16:55:09.901Z,10.90
2023-11-23T16:57:37.897Z,14.10
2023-11-23T17:00:09.866Z,11.60
2023-11-23T17:02:37.610Z,12.90
2023-11-23T17:05:10.477Z,11.00
2023-11-23T17:14:08.640Z,12.80
2023-11-23T17:16:37.712Z,11.70
2023-11-23T17:19:06.379Z,13.20
2023-11-23T17:21:34.291Z,9.30
2023-11-23T17:24:01.882Z,10.60
2023-11-23T17:26:33.346Z,9.00
2023-11-23T17:29:00.997Z,10.10
2023-11-23T17:31:28.586Z,11.00
2023-11-23T17:33:56.310Z,10.10
2023-11-23T17:44:06.747Z,8.10
2023-11-23T17:46:36.997Z,9.30
2023-11-23T17:49:07.097Z,9.90
2023-11-23T17:51:34.991Z,10.80
2023-11-23T17:54:04.988Z,10.80
2023-11-23T18:04:19.657Z,11.30
2023-11-23T18:06:47.217Z,10.00
2023-11-23T18:09:15.038Z,10.60
2023-11-23T18:11:42.692Z,10.50
2023-11-23T18:14:10.896Z,10.70
2023-11-23T18:16:38.407Z,10.20
2023-11-23T18:19:06.123Z,10.20
2023-11-23T18:21:33.786Z,8.90
2023-11-23T18:24:01.873Z,12.80
2023-11-23T18:26:30.514Z,11.00
2023-11-23T18:28:58.073Z,10.10
2023-11-23T18:31:25.730Z,12.90
2023-11-23T18:33:53.591Z,11.60
2023-11-23T18:36:22.415Z,11.20
2023-11-23T18:38:50.266Z,11.00
2023-11-23T18:41:17.928Z,13.20
2023-11-23T18:43:45.716Z,11.30
2023-11-23T18:52:43.512Z,11.00
2023-11-23T18:55:11.606Z,11.90
2023-11-23T18:57:40.322Z,11.30
2023-11-23T19:00:10.218Z,10.50
2023-11-23T19:02:38.881Z,8.30
2023-11-23T19:05:07.189Z,9.70
2023-11-23T19:07:35.226Z,8.80
2023-11-23T19:10:03.318Z,8.60
2023-11-23T19:12:31.396Z,9.00
2023-11-23T19:15:02.543Z,9.20
2023-11-23T19:17:30.600Z,10.30
2023-11-23T19:19:58.689Z,7.70
2023-11-23T19:22:26.943Z,9.60
2023-11-23T19:24:56.422Z,9.20
2023-11-23T19:27:25.381Z,7.10
2023-11-23T19:29:54.170Z,8.10
2023-11-23T19:32:27.253Z,8.10
2023-11-23T19:34:55.519Z,8.50
2023-11-23T19:37:23.822Z,8.60
2023-11-23T19:39:52.332Z,8.90
2023-11-23T19:42:20.563Z,9.00
2023-11-23T19:44:48.702Z,7.40
2023-11-23T19:47:17.088Z,9.60
2023-11-23T19:49:45.160Z,7.60
2023-11-23T19:52:17.987Z,9.40
2023-11-23T19:54:46.235Z,8.10
2023-11-23T19:57:14.891Z,8.40
2023-11-23T19:59:42.701Z,8.60
2023-11-23T20:02:10.267Z,8.80
2023-11-23T20:04:38.047Z,7.60
2023-11-23T20:07:05.898Z,8.50
2023-11-23T20:09:33.555Z,8.00
2023-11-23T20:12:01.205Z,7.00
2023-11-23T20:14:28.861Z,8.50
2023-11-23T20:16:57.088Z,8.00
2023-11-23T20:19:24.905Z,7.30
2023-11-23T20:21:52.981Z,7.20
2023-11-23T20:24:20.717Z,6.90
2023-11-23T20:26:48.412Z,8.20
2023-11-23T20:29:16.020Z,6.70
2023-11-23T20:31:44.561Z,6.00
2023-11-23T20:34:12.936Z,7.00
2023-11-23T20:36:41.627Z,8.60
2023-11-23T20:39:10.822Z,8.90
2023-11-23T20:41:38.483Z,6.70
2023-11-23T20:44:07.459Z,7.30
2023-11-23T20:46:35.680Z,6.90
2023-11-23T20:49:04.622Z,5.20
2023-11-23T20:51:32.303Z,6.70
2023-11-23T20:54:00.137Z,6.00
2023-11-23T20:56:29.546Z,7.60
2023-11-23T20:58:57.284Z,9.40
2023-11-23T21:01:26.951Z,10.40
2023-11-23T21:03:55.147Z,8.50
2023-11-23T21:06:26.545Z,12.90
2023-11-23T21:17:02.097Z,11.30
2023-11-23T21:19:29.627Z,8.80
2023-11-23T21:21:57.561Z,10.10
2023-11-23T21:24:25.272Z,7.40
2023-11-23T21:26:54.496Z,6.10
2023-11-23T21:29:22.121Z,7.50
2023-11-23T21:31:49.757Z,7.90
2023-11-23T21:34:17.393Z,6.80
2023-11-23T21:36:50.298Z,6.80
2023-11-23T21:39:24.679Z,7.60
2023-11-23T21:49:41.422Z,9.10
2023-11-23T21:52:09.528Z,6.20
2023-11-23T21:54:50.080Z,8.00
2023-11-23T21:57:21.258Z,7.90
2023-11-23T21:59:48.805Z,7.50
2023-11-23T22:02:16.444Z,7.70
2023-11-23T22:04:46.100Z,8.90
2023-11-23T22:07:13.547Z,8.60
2023-11-23T22:09:41.106Z,9.20
2023-11-23T22:19:49.670Z,7.60
2023-11-23T22:22:17.665Z,7.20
2023-11-23T22:24:45.491Z,7.20
2023-11-23T22:27:13.691Z,8.30
